createdAt,value
2018-09-26T00:01:18.509Z,99155.91
2018-09-26T00:03:50.176Z,99150.88
2018-09-26T00:06:18.787Z,99146.26
2018-09-26T00:08:47.416Z,99144.59
2018-09-26T00:11:16.241Z,99142.87
2018-09-26T00:13:44.852Z,99143.73
2018-09-26T00:16:13.483Z,99153.84
2018-09-26T00:18:42.195Z,99144.16
2018-09-26T00:21:10.820Z,99134.03
2018-09-26T00:23:39.481Z,99126.45
2018-09-26T00:26:08.220Z,99123.95
2018-09-26T00:28:36.840Z,99119.32
2018-09-26T00:31:05.460Z,99105.84
2018-09-26T00:33:34.193Z,99107.13
2018-09-26T00:36:02.815Z,99109.67
2018-09-26T00:38:31.392Z,99102.52
2018-09-26T00:41:00.009Z,99100.41
2018-09-26T00:43:28.698Z,99108.41
2018-09-26T00:45:57.359Z,99100.42
2018-09-26T00:48:26.018Z,99086.08
2018-09-26T00:50:55.036Z,99081.47
2018-09-26T00:53:23.648Z,99075.98
2018-09-26T00:55:52.372Z,99073.90
2018-09-26T00:58:20.944Z,99069.25
2018-09-26T01:00:49.735Z,99056.22
2018-09-26T01:03:18.536Z,99052.42
2018-09-26T01:05:47.459Z,99049.89
2018-09-26T01:08:16.284Z,99053.27
2018-09-26T01:10:45.400Z,99045.27
2018-09-26T01:13:14.251Z,99044.44
2018-09-26T01:15:43.212Z,99049.48
2018-09-26T01:18:12.545Z,99042.73
2018-09-26T01:20:42.976Z,99033.48
2018-09-26T01:23:12.864Z,99036.02
2018-09-26T01:25:42.348Z,99037.68
2018-09-26T01:28:10.892Z,99032.21
2018-09-26T01:30:39.588Z,99037.23
2018-09-26T01:33:08.183Z,99030.94
2018-09-26T01:35:36.976Z,99030.50
2018-09-26T01:38:05.788Z,99027.13
2018-09-26T01:40:34.344Z,99032.09
2018-09-26T01:43:03.040Z,99034.60
2018-09-26T01:45:31.839Z,99036.70
2018-09-26T01:48:00.430Z,99030.38
2018-09-26T01:50:28.988Z,99032.07
2018-09-26T01:52:57.600Z,99030.83
2018-09-26T01:55:26.223Z,99024.08
2018-09-26T01:57:54.832Z,99014.02
2018-09-26T02:00:24.016Z,99013.19
2018-09-26T02:02:52.632Z,99006.52
2018-09-26T02:05:21.224Z,99015.34
2018-09-26T02:07:50.173Z,99019.56
2018-09-26T02:10:18.833Z,99015.37
2018-09-26T02:12:47.411Z,99018.30
2018-09-26T02:15:16.147Z,99020.42
2018-09-26T02:17:44.720Z,99019.57
2018-09-26T02:20:13.293Z,99012.43
2018-09-26T02:22:41.983Z,99016.64
2018-09-26T02:25:11.047Z,99020.83
2018-09-26T02:27:40.047Z,99019.55
2018-09-26T02:30:08.815Z,99021.23
2018-09-26T02:32:37.420Z,99025.80
2018-09-26T02:35:06.057Z,99029.19
2018-09-26T02:37:34.652Z,99024.53
2018-09-26T02:40:03.343Z,99024.52
2018-09-26T02:42:31.947Z,99024.94
2018-09-26T02:45:00.852Z,99021.57
2018-09-26T02:47:29.515Z,99024.50
2018-09-26T02:49:58.099Z,99021.14
2018-09-26T02:52:26.791Z,99023.65
2018-09-26T02:54:55.730Z,99023.22
2018-09-26T02:57:24.613Z,99015.61
2018-09-26T02:59:53.388Z,99014.34
2018-09-26T03:02:22.175Z,99012.63
2018-09-26T03:04:50.841Z,99022.28
2018-09-26T03:07:19.471Z,99026.45
2018-09-26T03:09:48.055Z,99029.39
2018-09-26T03:12:16.676Z,99019.73
2018-09-26T03:14:45.323Z,99020.97
2018-09-26T03:17:13.981Z,99017.14
2018-09-26T03:19:42.599Z,99014.20
2018-09-26T03:22:11.282Z,99004.47
2018-09-26T03:24:39.863Z,99013.27
2018-09-26T03:27:08.458Z,99011.98
2018-09-26T03:29:37.078Z,99004.42
2018-09-26T03:32:05.653Z,99007.77
2018-09-26T03:34:34.231Z,99008.13
2018-09-26T03:37:03.723Z,99004.34
2018-09-26T03:39:34.527Z,98995.08
2018-09-26T03:42:03.561Z,98990.84
2018-09-26T03:44:32.182Z,98983.23
2018-09-26T03:47:01.201Z,98975.64
2018-09-26T03:49:30.036Z,98969.80
2018-09-26T03:51:58.728Z,98968.50
2018-09-26T03:54:29.914Z,98960.95
2018-09-26T03:56:58.564Z,98953.41
2018-09-26T03:59:27.119Z,98940.80
2018-09-26T04:01:55.866Z,98944.13
2018-09-26T04:04:24.456Z,98942.47
2018-09-26T04:06:53.063Z,98937.02
2018-09-26T04:09:21.725Z,98933.25
2018-09-26T04:11:50.428Z,98941.58
2018-09-26T04:14:19.012Z,98933.63
2018-09-26T04:16:47.677Z,98936.14
2018-09-26T04:19:16.288Z,98941.17
2018-09-26T04:21:44.876Z,98938.24
2018-09-26T04:24:13.584Z,98926.92
2018-09-26T04:26:42.374Z,98932.36
2018-09-26T04:29:10.839Z,98947.88
2018-09-26T04:31:40.336Z,98951.64
2018-09-26T04:34:08.942Z,98956.27
2018-09-26T04:36:37.574Z,98961.73
2018-09-26T04:39:09.352Z,98973.89
2018-09-26T04:41:38.803Z,98967.98
2018-09-26T04:44:08.068Z,98963.70
2018-09-26T04:46:37.360Z,98964.07
2018-09-26T04:49:07.312Z,98950.13
2018-09-26T04:51:36.755Z,98958.03
2018-09-26T04:54:06.037Z,98955.08
2018-09-26T04:56:34.685Z,98960.08
2018-09-26T04:59:03.648Z,98970.14
2018-09-26T05:01:33.271Z,98978.56
2018-09-26T05:04:02.127Z,98979.00
2018-09-26T05:06:30.865Z,98981.54
2018-09-26T05:08:59.614Z,98984.49
2018-09-26T05:11:28.475Z,98988.70
2018-09-26T05:13:57.199Z,98989.52
2018-09-26T05:16:25.792Z,98992.50
2018-09-26T05:21:29.459Z,98997.64
2018-09-26T05:23:58.198Z,98993.09
2018-09-26T05:26:26.838Z,98993.12
2018-09-26T05:28:55.719Z,98992.33
2018-09-26T05:31:24.726Z,98989.38
2018-09-26T05:33:53.301Z,98989.81
2018-09-26T05:36:21.931Z,98988.09
2018-09-26T05:38:50.831Z,98983.80
2018-09-26T05:41:19.416Z,98976.64
2018-09-26T05:43:48.168Z,98973.25
2018-09-26T05:46:16.770Z,98969.87
2018-09-26T05:48:45.628Z,98968.66
2018-09-26T05:51:14.267Z,98974.16
2018-09-26T05:53:43.263Z,98969.61
2018-09-26T05:56:11.849Z,98979.84
2018-09-26T05:58:40.540Z,98985.36
2018-09-26T06:01:09.205Z,98982.13
2018-09-26T06:03:37.821Z,98988.03
2018-09-26T06:06:06.449Z,98984.78
2018-09-26T06:08:35.203Z,98986.98
2018-09-26T06:11:03.804Z,98988.33
2018-09-26T06:13:33.940Z,98983.73
2018-09-26T06:16:02.529Z,98979.99
2018-09-26T06:18:31.105Z,98979.17
2018-09-26T06:21:00.786Z,98972.87
2018-09-26T06:23:29.714Z,98969.95
2018-09-26T06:25:58.858Z,98965.75
2018-09-26T06:28:27.579Z,98973.75
2018-09-26T06:30:56.681Z,98973.73
2018-09-26T06:33:25.487Z,98970.38
2018-09-26T06:35:54.627Z,98974.54
2018-09-26T06:38:23.684Z,98988.00
2018-09-26T06:40:52.244Z,98977.90
2018-09-26T06:43:20.868Z,98987.14
2018-09-26T06:45:49.707Z,98979.10
2018-09-26T06:48:18.696Z,98990.45
2018-09-26T06:50:48.022Z,98995.41
2018-09-26T06:53:16.773Z,98997.36
2018-09-26T06:55:45.571Z,98995.97
2018-09-26T06:58:14.412Z,98998.45
2018-09-26T07:00:43.015Z,98996.34
2018-09-26T07:03:11.707Z,98993.41
2018-09-26T07:05:41.098Z,98996.34
2018-09-26T07:08:09.989Z,99008.26
2018-09-26T07:10:38.975Z,99013.34
2018-09-26T07:13:07.892Z,99009.55
2018-09-26T07:15:36.649Z,99004.41
2018-09-26T07:18:05.275Z,99004.77
2018-09-26T07:20:34.056Z,99012.45
2018-09-26T07:23:02.983Z,99028.53
2018-09-26T07:25:31.939Z,99027.00
2018-09-26T07:28:01.124Z,99024.62
2018-09-26T07:30:29.802Z,99029.80
2018-09-26T07:32:58.704Z,99024.67
2018-09-26T07:35:28.215Z,99022.70
2018-09-26T07:37:57.400Z,99023.64
2018-09-26T07:40:25.981Z,99024.55
2018-09-26T07:42:54.688Z,99025.23
2018-09-26T07:45:23.307Z,99023.17
2018-09-26T07:47:51.893Z,99027.53
2018-09-26T07:50:21.021Z,99041.22
2018-09-26T07:52:49.640Z,99036.03
2018-09-26T07:55:18.248Z,99040.97
2018-09-26T07:57:46.873Z,99040.13
2018-09-26T08:00:15.455Z,99032.73
2018-09-26T08:02:44.085Z,99028.02
2018-09-26T08:05:12.760Z,99024.86
2018-09-26T08:07:41.431Z,99024.33
2018-09-26T08:10:10.075Z,99028.28
2018-09-26T08:12:38.751Z,99027.05
2018-09-26T08:15:07.428Z,99031.63
2018-09-26T08:17:36.039Z,99038.14
2018-09-26T08:20:05.227Z,99037.37
2018-09-26T08:22:33.819Z,99044.27
2018-09-26T08:25:02.432Z,99040.23
2018-09-26T08:27:31.160Z,99035.72
2018-09-26T08:29:59.845Z,99037.88
2018-09-26T08:32:28.355Z,99039.06
2018-09-26T08:34:57.271Z,99029.51
2018-09-26T08:37:25.864Z,99029.48
2018-09-26T08:39:54.463Z,99041.55
2018-09-26T08:42:23.170Z,99043.08
2018-09-26T08:44:51.755Z,99039.80
2018-09-26T08:47:20.349Z,99043.86
2018-09-26T08:49:49.050Z,99044.59
2018-09-26T08:52:17.679Z,99044.44
2018-09-26T08:54:46.336Z,99036.31
2018-09-26T08:57:15.032Z,99031.69
2018-09-26T08:59:43.748Z,99031.23
2018-09-26T09:02:12.244Z,99022.57
2018-09-26T09:04:40.883Z,99021.31
2018-09-26T09:07:09.460Z,99025.13
2018-09-26T09:09:38.040Z,99025.03
2018-09-26T09:12:08.814Z,99031.91
2018-09-26T09:14:37.514Z,99031.34
2018-09-26T09:17:06.120Z,99039.33
2018-09-26T09:19:34.767Z,99050.59
2018-09-26T09:22:03.344Z,99060.00
2018-09-26T09:24:31.988Z,99064.63
2018-09-26T09:27:00.848Z,99055.48
2018-09-26T09:29:30.403Z,99041.64
2018-09-26T09:31:59.148Z,99041.56
2018-09-26T09:34:27.808Z,99040.45
2018-09-26T09:36:56.399Z,99034.84
2018-09-26T09:39:24.983Z,99040.13
2018-09-26T09:41:53.867Z,99033.80
2018-09-26T09:44:22.533Z,99037.73
2018-09-26T09:46:51.078Z,99042.19
2018-09-26T09:49:19.799Z,99035.81
2018-09-26T09:51:48.400Z,99040.69
2018-09-26T09:54:17.115Z,99040.23
2018-09-26T09:56:45.900Z,99041.17
2018-09-26T09:59:14.500Z,99044.38
2018-09-26T10:01:43.068Z,99032.93
2018-09-26T10:04:11.726Z,99038.80
2018-09-26T10:06:40.331Z,99036.34
2018-09-26T10:09:09.126Z,99025.17
2018-09-26T10:11:37.792Z,99028.06
2018-09-26T10:14:06.463Z,99029.09
2018-09-26T10:16:35.039Z,99025.90
2018-09-26T10:19:03.696Z,99020.03
2018-09-26T10:21:32.269Z,99021.38
2018-09-26T10:24:01.316Z,99023.49
2018-09-26T10:26:29.908Z,99022.78
2018-09-26T10:28:58.493Z,99015.23
2018-09-26T10:31:27.079Z,99009.55
2018-09-26T10:33:56.065Z,99004.08
2018-09-26T10:36:24.632Z,98999.25
2018-09-26T10:38:53.231Z,98995.80
2018-09-26T10:41:21.907Z,98994.50
2018-09-26T10:43:50.496Z,98994.87
2018-09-26T10:46:19.055Z,98989.45
2018-09-26T10:48:47.989Z,98996.12
2018-09-26T10:51:16.543Z,99003.21
2018-09-26T10:53:45.600Z,98997.61
2018-09-26T10:56:14.378Z,98998.61
2018-09-26T10:58:42.936Z,98989.44
2018-09-26T11:01:11.500Z,98992.80
2018-09-26T11:03:40.220Z,98993.47
2018-09-26T11:06:09.162Z,98990.83
2018-09-26T11:08:37.751Z,98989.27
2018-09-26T11:11:06.812Z,98986.94
2018-09-26T11:13:35.407Z,98978.31
2018-09-26T11:16:05.447Z,98979.52
2018-09-26T11:18:34.555Z,98969.34
2018-09-26T11:21:03.135Z,98973.72
2018-09-26T11:23:31.697Z,98958.52
2018-09-26T11:26:00.450Z,98960.47
2018-09-26T11:28:28.997Z,98959.95
2018-09-26T11:30:57.614Z,98956.80
2018-09-26T11:33:26.388Z,98960.64
2018-09-26T11:35:54.908Z,98955.08
2018-09-26T11:38:23.518Z,98957.37
2018-09-26T11:40:52.701Z,98960.21
2018-09-26T11:43:21.272Z,98950.03
2018-09-26T11:45:50.048Z,98947.84
2018-09-26T11:48:19.028Z,98946.39
2018-09-26T11:50:47.617Z,98947.59
2018-09-26T11:53:16.197Z,98947.98
2018-09-26T11:55:44.926Z,98943.30
2018-09-26T11:58:13.516Z,98941.75
2018-09-26T12:00:42.147Z,98945.45
2018-09-26T12:03:10.827Z,98945.48
2018-09-26T12:05:39.473Z,98942.56
2018-09-26T12:08:08.103Z,98936.82
2018-09-26T12:10:36.832Z,98933.14
2018-09-26T12:13:05.412Z,98927.52
2018-09-26T12:15:34.005Z,98931.84
2018-09-26T12:18:02.843Z,98924.72
2018-09-26T12:20:31.427Z,98928.95
2018-09-26T12:23:00.016Z,98937.25
2018-09-26T12:25:28.680Z,98929.70
2018-09-26T12:27:57.362Z,98931.19
2018-09-26T12:30:25.987Z,98924.09
2018-09-26T12:32:54.682Z,98916.63
2018-09-26T12:35:23.284Z,98919.03
2018-09-26T12:37:52.007Z,98912.82
2018-09-26T12:40:20.832Z,98917.48
2018-09-26T12:42:49.473Z,98913.14
2018-09-26T12:45:18.037Z,98911.22
2018-09-26T12:47:46.716Z,98906.45
2018-09-26T12:50:15.376Z,98909.42
2018-09-26T12:52:43.981Z,98906.66
2018-09-26T12:55:12.785Z,98905.50
2018-09-26T12:57:41.389Z,98894.88
2018-09-26T13:00:10.012Z,98889.83
2018-09-26T13:02:38.738Z,98893.45
2018-09-26T13:05:07.429Z,98886.70
2018-09-26T13:07:36.025Z,98888.45
2018-09-26T13:10:04.729Z,98890.80
2018-09-26T13:12:33.321Z,98888.09
2018-09-26T13:15:01.991Z,98887.34
2018-09-26T13:17:30.743Z,98886.00
2018-09-26T13:19:59.439Z,98884.97
2018-09-26T13:22:28.068Z,98887.19
2018-09-26T13:24:56.792Z,98881.16
2018-09-26T13:27:25.654Z,98884.77
2018-09-26T13:29:54.212Z,98879.33
2018-09-26T13:32:22.982Z,98879.23
2018-09-26T13:34:51.514Z,98876.81
2018-09-26T13:37:20.133Z,98875.04
2018-09-26T13:39:48.857Z,98871.82
2018-09-26T13:42:17.504Z,98871.31
2018-09-26T13:44:46.096Z,98865.97
2018-09-26T13:47:15.149Z,98864.64
2018-09-26T13:49:43.728Z,98866.52
2018-09-26T13:52:12.330Z,98861.84
2018-09-26T13:54:41.052Z,98861.07
2018-09-26T13:57:09.616Z,98865.81
2018-09-26T13:59:38.246Z,98859.59
2018-09-26T14:02:07.143Z,98856.24
2018-09-26T14:04:35.813Z,98853.77
2018-09-26T14:07:04.472Z,98851.13
2018-09-26T14:09:33.140Z,98848.88
2018-09-26T14:12:02.136Z,98847.59
2018-09-26T14:14:30.760Z,98844.05
2018-09-26T14:16:59.425Z,98837.25
2018-09-26T14:19:28.233Z,98843.91
2018-09-26T14:21:57.027Z,98838.92
2018-09-26T14:24:25.891Z,98838.73
2018-09-26T14:26:54.511Z,98834.91
2018-09-26T14:29:23.115Z,98833.27
2018-09-26T14:31:51.727Z,98838.41
2018-09-26T14:34:20.340Z,98836.09
2018-09-26T14:36:48.920Z,98831.33
2018-09-26T14:39:17.685Z,98834.39
2018-09-26T14:41:46.262Z,98832.13
2018-09-26T14:44:14.944Z,98831.81
2018-09-26T14:46:43.614Z,98825.17
2018-09-26T14:49:12.314Z,98829.07
2018-09-26T14:51:40.882Z,98828.65
2018-09-26T14:54:09.697Z,98836.98
2018-09-26T14:56:38.353Z,98833.56
2018-09-26T14:59:06.943Z,98827.77
2018-09-26T15:01:35.571Z,98826.19
2018-09-26T15:04:04.163Z,98830.37
2018-09-26T15:06:32.796Z,98823.77
2018-09-26T15:09:01.493Z,98830.88
2018-09-26T15:11:30.120Z,98826.81
2018-09-26T15:13:58.674Z,98823.62
2018-09-26T15:16:27.289Z,98828.63
2018-09-26T15:18:55.904Z,98819.25
2018-09-26T15:21:24.515Z,98822.30
2018-09-26T15:23:53.263Z,98825.83
2018-09-26T15:26:21.929Z,98831.30
2018-09-26T15:28:50.548Z,98829.25
2018-09-26T15:31:19.197Z,98823.89
2018-09-26T15:33:47.807Z,98819.49
2018-09-26T15:36:16.423Z,98817.67
2018-09-26T15:38:45.427Z,98822.38
2018-09-26T15:41:14.093Z,98820.78
2018-09-26T15:43:42.669Z,98824.65
2018-09-26T15:46:11.381Z,98823.06
2018-09-26T15:48:40.092Z,98824.35
2018-09-26T15:51:08.629Z,98820.20
2018-09-26T15:53:37.324Z,98821.06
2018-09-26T15:56:05.958Z,98823.39
2018-09-26T15:58:34.556Z,98821.27
2018-09-26T16:01:03.256Z,98823.39
2018-09-26T16:03:31.825Z,98828.83
2018-09-26T16:06:00.431Z,98827.67
2018-09-26T16:08:29.061Z,98824.50
2018-09-26T16:10:57.653Z,98829.34
2018-09-26T16:13:26.253Z,98832.05
2018-09-26T16:15:54.959Z,98829.48
2018-09-26T16:18:23.587Z,98830.62
2018-09-26T16:20:52.156Z,98825.53
2018-09-26T16:23:20.848Z,98819.80
2018-09-26T16:25:49.450Z,98826.81
2018-09-26T16:28:18.042Z,98823.69
2018-09-26T16:30:46.856Z,98832.32
2018-09-26T16:33:15.833Z,98823.47
2018-09-26T16:35:44.425Z,98821.41
2018-09-26T16:38:13.309Z,98816.19
2018-09-26T16:40:41.876Z,98821.45
2018-09-26T16:43:10.445Z,98822.47
2018-09-26T16:45:39.449Z,98813.40
2018-09-26T16:48:08.098Z,98820.34
2018-09-26T16:50:37.553Z,98825.98
2018-09-26T16:53:06.323Z,98828.11
2018-09-26T16:55:34.912Z,98831.03
2018-09-26T16:58:03.501Z,98829.48
2018-09-26T17:00:32.143Z,98834.97
2018-09-26T17:03:00.726Z,98834.34
2018-09-26T17:05:29.363Z,98841.73
2018-09-26T17:07:58.116Z,98839.20
2018-09-26T17:10:26.705Z,98838.89
2018-09-26T17:12:55.796Z,98835.30
2018-09-26T17:15:24.724Z,98840.12
2018-09-26T17:17:53.384Z,98839.30
2018-09-26T17:20:22.002Z,98846.58
2018-09-26T17:22:50.704Z,98852.40
2018-09-26T17:25:19.297Z,98857.57
2018-09-26T17:27:47.901Z,98854.81
2018-09-26T17:30:16.637Z,98857.73
2018-09-26T17:32:45.226Z,98855.63
2018-09-26T17:35:14.148Z,98863.67
2018-09-26T17:37:42.941Z,98855.50
2018-09-26T17:40:12.243Z,98858.06
2018-09-26T17:42:41.000Z,98855.73
2018-09-26T17:45:10.240Z,98852.01
2018-09-26T17:47:38.851Z,98856.53
2018-09-26T17:50:07.548Z,98855.51
2018-09-26T17:52:36.207Z,98857.02
2018-09-26T17:55:05.068Z,98860.74
2018-09-26T17:57:33.661Z,98864.39
2018-09-26T18:00:02.351Z,98864.80
2018-09-26T18:02:30.953Z,98867.80
2018-09-26T18:04:59.761Z,98872.59
2018-09-26T18:07:28.472Z,98872.86
2018-09-26T18:09:57.092Z,98866.77
2018-09-26T18:12:25.696Z,98877.09
2018-09-26T18:14:54.519Z,98871.97
2018-09-26T18:17:23.139Z,98876.80
2018-09-26T18:19:51.765Z,98873.89
2018-09-26T18:22:20.805Z,98869.39
2018-09-26T18:24:49.396Z,98862.36
2018-09-26T18:27:17.958Z,98868.05
2018-09-26T18:29:46.640Z,98867.83
2018-09-26T18:32:15.259Z,98866.62
2018-09-26T18:34:43.824Z,98870.34
2018-09-26T18:37:12.439Z,98864.80
2018-09-26T18:39:41.021Z,98870.32
2018-09-26T18:42:09.605Z,98870.12
2018-09-26T18:44:38.291Z,98869.28
2018-09-26T18:47:06.874Z,98866.28
2018-09-26T18:49:35.475Z,98870.09
2018-09-26T18:52:04.167Z,98870.92
2018-09-26T18:54:32.727Z,98877.48
2018-09-26T18:57:01.312Z,98877.48
2018-09-26T18:59:29.945Z,98880.54
2018-09-26T19:01:58.524Z,98872.50
2018-09-26T19:04:27.199Z,98890.86
2018-09-26T19:06:55.856Z,98885.78
2018-09-26T19:09:24.463Z,98884.86
2018-09-26T19:11:53.079Z,98892.89
2018-09-26T19:14:21.791Z,98890.44
2018-09-26T19:16:50.378Z,98896.58
2018-09-26T19:19:18.984Z,98894.05
2018-09-26T19:21:47.786Z,98886.89
2018-09-26T19:24:16.401Z,98886.11
2018-09-26T19:26:45.016Z,98890.22
2018-09-26T19:29:14.215Z,98886.15
2018-09-26T19:31:42.825Z,98886.94
2018-09-26T19:34:11.437Z,98886.30
2018-09-26T19:36:40.109Z,98890.91
2018-09-26T19:39:10.381Z,98892.62
2018-09-26T19:41:39.279Z,98892.62
2018-09-26T19:44:07.960Z,98897.81
2018-09-26T19:46:36.569Z,98897.46
2018-09-26T19:49:05.272Z,98896.79
2018-09-26T19:51:33.879Z,98907.14
2018-09-26T19:54:02.472Z,98905.27
2018-09-26T19:56:31.211Z,98904.23
2018-09-26T19:58:59.803Z,98907.39
2018-09-26T20:01:28.420Z,98909.83
2018-09-26T20:03:57.120Z,98911.39
2018-09-26T20:06:25.771Z,98909.55
2018-09-26T20:08:54.380Z,98909.30
2018-09-26T20:11:23.120Z,98909.95
2018-09-26T20:13:51.750Z,98908.25
2018-09-26T20:16:20.328Z,98911.30
2018-09-26T20:18:49.036Z,98911.50
2018-09-26T20:21:17.608Z,98913.84
2018-09-26T20:23:46.194Z,98911.83
2018-09-26T20:26:14.920Z,98909.06
2018-09-26T20:28:43.612Z,98918.50
2018-09-26T20:31:12.200Z,98908.09
2018-09-26T20:33:40.923Z,98912.09
2018-09-26T20:36:09.522Z,98908.91
2018-09-26T20:38:38.142Z,98906.92
2018-09-26T20:41:07.308Z,98902.79
2018-09-26T20:43:36.084Z,98903.23
2018-09-26T20:46:04.748Z,98903.34
2018-09-26T20:48:33.487Z,98902.57
2018-09-26T20:51:02.178Z,98902.68
2018-09-26T20:53:30.940Z,98901.47
2018-09-26T20:55:59.797Z,98898.64
2018-09-26T20:58:28.376Z,98906.33
2018-09-26T21:00:57.008Z,98902.63
2018-09-26T21:03:25.798Z,98909.53
2018-09-26T21:05:54.440Z,98902.98
2018-09-26T21:08:23.276Z,98903.11
2018-09-26T21:10:52.655Z,98903.64
2018-09-26T21:13:21.432Z,98904.13
2018-09-26T21:15:50.240Z,98900.39
2018-09-26T21:18:18.959Z,98901.34
2018-09-26T21:20:47.547Z,98893.79
2018-09-26T21:23:16.560Z,98896.39
2018-09-26T21:25:45.154Z,98889.28
2018-09-26T21:28:13.747Z,98891.04
2018-09-26T21:30:42.392Z,98886.43
2018-09-26T21:33:11.387Z,98889.44
2018-09-26T21:35:39.976Z,98887.34
2018-09-26T21:38:08.575Z,98891.20
2018-09-26T21:40:37.216Z,98897.98
2018-09-26T21:43:05.883Z,98891.62
2018-09-26T21:45:34.469Z,98882.78
2018-09-26T21:48:03.183Z,98889.08
2018-09-26T21:50:31.759Z,98892.94
2018-09-26T21:53:00.405Z,98890.83
2018-09-26T21:55:30.628Z,98884.95
2018-09-26T21:57:59.326Z,98900.30
2018-09-26T22:00:28.517Z,98896.17
2018-09-26T22:02:57.231Z,98893.30
2018-09-26T22:05:25.967Z,98892.52
2018-09-26T22:07:54.623Z,98883.77
2018-09-26T22:10:23.408Z,98882.12
2018-09-26T22:12:52.415Z,98885.94
2018-09-26T22:15:23.554Z,98880.06
2018-09-26T22:17:54.292Z,98883.11
2018-09-26T22:20:22.947Z,98882.78
2018-09-26T22:22:51.696Z,98880.34
2018-09-26T22:25:20.604Z,98877.44
2018-09-26T22:27:49.473Z,98883.39
2018-09-26T22:30:18.083Z,98881.36
2018-09-26T22:32:47.172Z,98881.41
2018-09-26T22:35:16.008Z,98882.77
2018-09-26T22:37:44.604Z,98886.20
2018-09-26T22:40:13.212Z,98878.59
2018-09-26T22:42:42.635Z,98882.86
2018-09-26T22:45:12.099Z,98886.28
2018-09-26T22:47:42.119Z,98882.52
2018-09-26T22:50:11.676Z,98878.77
2018-09-26T22:52:41.408Z,98884.30
2018-09-26T22:55:11.658Z,98875.41
2018-09-26T22:57:41.231Z,98876.69
2018-09-26T23:00:10.960Z,98876.81
2018-09-26T23:02:40.774Z,98873.00
2018-09-26T23:05:10.934Z,98870.05
2018-09-26T23:07:41.052Z,98870.48
2018-09-26T23:10:10.906Z,98870.47
2018-09-26T23:12:40.996Z,98871.75
2018-09-26T23:15:10.832Z,98871.37
2018-09-26T23:17:39.501Z,98866.75
2018-09-26T23:20:08.084Z,98866.33
2018-09-26T23:22:36.807Z,98856.19
2018-09-26T23:25:05.416Z,98857.07
2018-09-26T23:27:34.004Z,98861.34
2018-09-26T23:30:02.704Z,98859.69
2018-09-26T23:32:31.297Z,98853.73
2018-09-26T23:34:59.906Z,98850.39
2018-09-26T23:37:28.849Z,98851.24
2018-09-26T23:39:57.445Z,98849.55
2018-09-26T23:42:26.052Z,98853.01
2018-09-26T23:44:54.680Z,98851.40
2018-09-26T23:47:23.295Z,98842.60
2018-09-26T23:49:51.876Z,98845.63
2018-09-26T23:52:20.575Z,98843.17
2018-09-26T23:54:49.207Z,98841.56
2018-09-26T23:57:17.792Z,98835.30
2018-09-26T23:59:46.697Z,98838.70
